• Join FlightAware (Why Join?)
  • Login
  • US Flag 
06:30AM EDT


 

Airport Tracker/Info


-or-


 

Live Flight TrackerFlight Track Log ✈ LXJ529 ✈ 28-Jun-2013 ✈ KLAX - PHKO / KOA

Flight Track Log - Related Links

Times and Time Zones

All times are in EDT time to prevent confusion due to time zone crossing. See the LXJ529 flight status page for this flight to view local times or setup timezone preferences in your user account.

Time Position Orientation Groundspeed Altitude Reporting Facility
EDT Latitude Longitude Course Direction KTS MPH feet Rate Location/Type
05:46PM 33.9331 -118.4406 261° West 189 217 1,700  Level Los Angeles Center
05:47PM 33.9225 -118.5236 261° West 230 265 4,800 2,820 Climbing Los Angeles Center
05:48PM 33.9131 -118.6089 262° West 254 292 7,600 2,820 Climbing Los Angeles Center
05:49PM 33.9028 -118.7094 263° West 280 322 10,700 2,220 Climbing Los Angeles Center
05:50PM 33.8897 -118.8106 261° West 315 362 12,300 1,620 Climbing Los Angeles Center
05:51PM 33.8439 -118.9142 242° Southwest 352 405 14,100 1,680 Climbing Los Angeles Center
05:53PM 33.7689 -118.9992 223° Southwest 374 430 15,900 1,680 Climbing Los Angeles Center
05:54PM 33.6883 -119.0883 223° Southwest 392 451 17,600 1,800 Climbing Los Angeles Center
05:55PM 33.5886 -119.1989 223° Southwest 409 471 19,700 1,800 Climbing Los Angeles Center
05:56PM 33.5056 -119.2936 224° Southwest 411 473 21,400 1,440 Climbing Los Angeles Center
05:57PM 33.4181 -119.3892 222° Southwest 423 487 23,000 1,500 Climbing Los Angeles Center
05:58PM 33.3294 -119.4883 223° Southwest 433 498 24,800 1,800 Climbing Los Angeles Center
05:59PM 33.2219 -119.6069 223° Southwest 438 504 26,800 1,680 Climbing Los Angeles Center
06:00PM 33.1314 -119.7050 222° Southwest 440 506 28,400 1,620 Climbing Los Angeles Center
06:01PM 33.0222 -119.8244 223° Southwest 444 511 30,200 1,560 Climbing Los Angeles Center
06:02PM 32.9294 -119.9253 222° Southwest 449 517 31,700 1,260 Climbing Los Angeles Center
06:03PM 32.8444 -120.0186 223° Southwest 453 521 32,900 1,140 Climbing Los Angeles Center
06:04PM 32.7483 -120.1186 221° Southwest 457 526 34,100 960 Climbing Los Angeles Center
06:05PM 32.6319 -120.2469 223° Southwest 470 541 35,000 720 Climbing Los Angeles Center
06:06PM 32.5303 -120.3533 221° Southwest 482 555 35,700 660 Climbing Los Angeles Center
06:07PM 32.4292 -120.4636 223° Southwest 490 564 36,600 900 Climbing Los Angeles Center
06:08PM 32.3081 -120.5939 222° Southwest 490 564 37,800 960 Climbing Los Angeles Center
06:09PM 32.2275 -120.6786 222° Southwest 488 562 38,600 960 Climbing Los Angeles Center
06:11PM 32.0878 -120.8272 222° Southwest 483 556 40,000 600 Climbing Los Angeles Center
06:12PM 31.9669 -120.9564 222° Southwest 487 560 40,000  Level Los Angeles Center
06:13PM 31.8625 -121.0647 221° Southwest 496 571 40,000  Level Los Angeles Center
06:14PM 31.7603 -121.1717 222° Southwest 493 567 40,000  Level Los Angeles Center
06:15PM 31.6406 -121.3022 223° Southwest 490 564 40,000  Level Los Angeles Center
06:17PM 31.5371 -121.4503 257° West  Level FlightAware Approximate
06:24PM 31.3508 -122.3989 257° West  Level FlightAware Approximate
06:25PM 31.3237 -122.5341 257° West  Level FlightAware Approximate
06:26PM 31.2963 -122.6693 257° West  Level FlightAware Approximate
06:27PM 31.2690 -122.8044 257° West  Level FlightAware Approximate
06:28PM 31.2416 -122.9394 257° West  Level FlightAware Approximate
06:29PM 31.2141 -123.0744 257° West  Level FlightAware Approximate
06:30PM 31.1865 -123.2093 257° West  Level FlightAware Approximate
06:31PM 31.1587 -123.3441 256° West  Level FlightAware Approximate
06:32PM 31.1303 -123.4787 254° West  Level FlightAware Approximate
06:33PM 31.1043 -123.6137 260° West  Level FlightAware Approximate
06:33PM 31.1333 -123.5500 256° West 448 516 40,000  Level Oakland Oceanic (ODAPS)
06:34PM 31.0833 -123.7501 254° West  Level FlightAware Approximate
06:35PM 31.0515 -123.8835 254° West  Level FlightAware Approximate
06:36PM 31.0197 -124.0160 254° West  Level FlightAware Approximate
06:37PM 30.9877 -124.1484 254° West  Level FlightAware Approximate
06:38PM 30.9582 -124.2815 256° West  Level FlightAware Approximate
06:39PM 30.8520 -124.8139 255° West 448 516 40,000  Level FlightAware Transoceanic
06:40PM 30.8200 -124.9538 255° West 448 516 40,000  Level FlightAware Transoceanic
06:41PM 30.7878 -125.0937 255° West 448 516 40,000  Level FlightAware Transoceanic
06:42PM 30.7555 -125.2335 255° West 448 516 40,000  Level FlightAware Transoceanic
06:43PM 30.7230 -125.3732 255° West 448 516 40,000  Level FlightAware Transoceanic
06:44PM 30.6904 -125.5128 255° West 448 516 40,000  Level FlightAware Transoceanic
06:45PM 30.6576 -125.6523 255° West 448 516 40,000  Level FlightAware Transoceanic
06:46PM 30.6247 -125.7917 255° West 448 516 40,000  Level FlightAware Transoceanic
06:47PM 30.5917 -125.9310 255° West 448 516 40,000  Level FlightAware Transoceanic
06:48PM 30.5585 -126.0702 254° West 448 516 40,000  Level FlightAware Transoceanic
06:49PM 30.5251 -126.2093 254° West 448 516 40,000  Level FlightAware Transoceanic
06:50PM 30.4916 -126.3483 254° West 448 516 40,000  Level FlightAware Transoceanic
06:51PM 30.4579 -126.4873 254° West 448 516 40,000  Level FlightAware Transoceanic
06:52PM 30.4241 -126.6261 254° West 448 516 40,000  Level FlightAware Transoceanic
06:53PM 30.3902 -126.7648 254° West 448 516 40,000  Level FlightAware Transoceanic
06:54PM 30.3561 -126.9035 254° West 448 516 40,000  Level FlightAware Transoceanic
06:55PM 30.3219 -127.0420 254° West 448 516 40,000  Level FlightAware Transoceanic
06:56PM 30.2875 -127.1804 254° West 448 516 40,000  Level FlightAware Transoceanic
06:57PM 30.2529 -127.3188 254° West 448 516 40,000  Level FlightAware Transoceanic
06:58PM 30.2183 -127.4570 254° West 448 516 40,000  Level FlightAware Transoceanic
06:59PM 30.1834 -127.5952 254° West 448 516 40,000  Level FlightAware Transoceanic
07:00PM 30.1485 -127.7332 254° West 448 516 40,000  Level FlightAware Transoceanic
07:01PM 30.1134 -127.8712 254° West 448 516 40,000  Level FlightAware Transoceanic
07:02PM 30.0781 -128.0090 253° West 448 516 40,000  Level FlightAware Transoceanic
07:03PM 30.0427 -128.1468 253° West 448 516 40,000  Level FlightAware Transoceanic
07:04PM 30.0072 -128.2845 253° West 448 516 40,000  Level FlightAware Transoceanic
07:05PM 29.9715 -128.4220 253° West 448 516 40,000  Level FlightAware Transoceanic
07:06PM 29.9356 -128.5595 253° West 448 516 40,000  Level FlightAware Transoceanic
07:07PM 29.8997 -128.6968 253° West 448 516 40,000  Level FlightAware Transoceanic
07:08PM 29.8636 -128.8341 253° West 448 516 40,000  Level FlightAware Transoceanic
07:09PM 29.8273 -128.9713 253° West 448 516 40,000  Level FlightAware Transoceanic
07:10PM 29.7909 -129.1083 253° West 448 516 40,000  Level FlightAware Transoceanic
07:11PM 29.7544 -129.2453 253° West 448 516 40,000  Level FlightAware Transoceanic
07:12PM 29.7177 -129.3822 253° West 448 516 40,000  Level FlightAware Transoceanic
07:13PM 29.6809 -129.5189 253° West 448 516 40,000  Level FlightAware Transoceanic
07:14PM 29.6439 -129.6556 253° West 448 516 40,000  Level FlightAware Transoceanic
07:15PM 29.6068 -129.7921 253° West 448 516 40,000  Level FlightAware Transoceanic
07:16PM 29.5696 -129.9286 253° West 448 516 40,000  Level FlightAware Transoceanic
07:17PM 29.5322 -130.0650 252° West 448 516 40,000  Level FlightAware Transoceanic
07:18PM 29.4947 -130.2012 252° West 448 516 40,000  Level FlightAware Transoceanic
07:19PM 29.4570 -130.3374 252° West 448 516 40,000  Level FlightAware Transoceanic
07:20PM 29.4192 -130.4734 252° West 448 516 40,000  Level FlightAware Transoceanic
07:21PM 29.3813 -130.6094 252° West 448 516 40,000  Level FlightAware Transoceanic
07:22PM 29.3432 -130.7453 252° West 448 516 40,000  Level FlightAware Transoceanic
07:23PM 29.3050 -130.8810 252° West 448 516 40,000  Level FlightAware Transoceanic
07:24PM 29.2667 -131.0167 252° West 448 516 40,000  Level FlightAware Transoceanic
07:25PM 29.2282 -131.1524 252° West 448 516 40,000  Level FlightAware Transoceanic
07:26PM 29.1895 -131.2881 252° West 448 516 40,000  Level FlightAware Transoceanic
07:27PM 29.1508 -131.4237 252° West 448 516 40,000  Level FlightAware Transoceanic
07:28PM 29.1119 -131.5591 252° West 448 516 40,000  Level FlightAware Transoceanic
07:29PM 29.0728 -131.6945 252° West 448 516 40,000 2,700 Level FlightAware Transoceanic
07:29PM 29.2667 -131.0167 252° West 433 498 43,000  Climbing Oakland Oceanic (ODAPS)
07:30PM 29.0337 -131.8298 252° West 448 516 40,000 -1,620 Descending FlightAware Transoceanic
07:31PM 28.9944 -131.9649 252° West 448 516 40,000  Level FlightAware Transoceanic
07:32PM 28.9549 -132.1000 252° West 448 516 40,000  Level FlightAware Transoceanic
07:33PM 28.9153 -132.2349 251° West 448 516 40,000  Level FlightAware Transoceanic
07:34PM 28.8756 -132.3698 251° West 448 516 40,000 1,500 Level FlightAware Transoceanic
07:35PM 28.8898 -132.3216 251° West 433 498 43,000 1,500 Climbing FlightAware Transoceanic
07:36PM 28.8514 -132.4516 251° West 433 498 43,000  Level FlightAware Transoceanic
07:37PM 28.8129 -132.5815 251° West 433 498 43,000  Level FlightAware Transoceanic
07:38PM 28.7743 -132.7113 251° West 433 498 43,000  Level FlightAware Transoceanic
07:39PM 28.7355 -132.8409 251° West 433 498 43,000  Level FlightAware Transoceanic
07:40PM 28.6967 -132.9705 251° West 433 498 43,000  Level FlightAware Transoceanic
07:41PM 28.6577 -133.1000 251° West 433 498 43,000  Level FlightAware Transoceanic
07:42PM 28.6186 -133.2294 251° West 433 498 43,000  Level FlightAware Transoceanic
07:43PM 28.5793 -133.3587 251° West 433 498 43,000  Level FlightAware Transoceanic
07:44PM 28.5399 -133.4879 251° West 433 498 43,000  Level FlightAware Transoceanic
07:45PM 28.5005 -133.6170 251° West 433 498 43,000  Level FlightAware Transoceanic
07:46PM 28.4608 -133.7460 251° West 433 498 43,000  Level FlightAware Transoceanic
07:47PM 28.4211 -133.8750 251° West 433 498 43,000  Level FlightAware Transoceanic
07:48PM 28.3813 -134.0038 251° West 433 498 43,000  Level FlightAware Transoceanic
07:49PM 28.3413 -134.1325 251° West 433 498 43,000  Level FlightAware Transoceanic
07:50PM 28.3012 -134.2611 250° West 433 498 43,000  Level FlightAware Transoceanic
07:51PM 28.2610 -134.3896 250° West 433 498 43,000  Level FlightAware Transoceanic
07:52PM 28.2206 -134.5181 250° West 433 498 43,000  Level FlightAware Transoceanic
07:53PM 28.1802 -134.6464 250° West 433 498 43,000  Level FlightAware Transoceanic
07:54PM 28.1396 -134.7746 250° West 433 498 43,000  Level FlightAware Transoceanic
07:55PM 28.0989 -134.9027 250° West 433 498 43,000  Level FlightAware Transoceanic
07:56PM 28.0581 -135.0308 250° West 433 498 43,000  Level FlightAware Transoceanic
07:57PM 28.0172 -135.1587 250° West 433 498 43,000  Level FlightAware Transoceanic
07:58PM 27.9761 -135.2866 250° West 433 498 43,000  Level FlightAware Transoceanic
07:59PM 27.9350 -135.4143 250° West 433 498 43,000  Level FlightAware Transoceanic
08:00PM 27.8937 -135.5419 250° West 433 498 43,000  Level FlightAware Transoceanic
08:01PM 27.8523 -135.6695 250° West 433 498 43,000  Level FlightAware Transoceanic
08:02PM 27.8108 -135.7970 250° West 433 498 43,000  Level FlightAware Transoceanic
08:03PM 27.7691 -135.9243 250° West 433 498 43,000  Level FlightAware Transoceanic
08:04PM 27.7274 -136.0516 250° West 433 498 43,000  Level FlightAware Transoceanic
08:05PM 27.6855 -136.1787 250° West 433 498 43,000  Level FlightAware Transoceanic
08:06PM 27.6435 -136.3058 250° West 433 498 43,000  Level FlightAware Transoceanic
08:07PM 27.6014 -136.4328 249° West 433 498 43,000  Level FlightAware Transoceanic
08:08PM 27.5592 -136.5596 249° West 433 498 43,000  Level FlightAware Transoceanic
08:09PM 27.5169 -136.6864 249° West 433 498 43,000  Level FlightAware Transoceanic
08:10PM 27.4744 -136.8131 249° West 433 498 43,000  Level FlightAware Transoceanic
08:11PM 27.4319 -136.9396 249° West 433 498 43,000  Level FlightAware Transoceanic
08:12PM 27.3892 -137.0661 249° West 433 498 43,000  Level FlightAware Transoceanic
08:13PM 27.3464 -137.1925 249° West 433 498 43,000  Level FlightAware Transoceanic
08:14PM 27.3035 -137.3188 249° West 433 498 43,000  Level FlightAware Transoceanic
08:15PM 27.2605 -137.4449 249° West 433 498 43,000  Level FlightAware Transoceanic
08:16PM 27.2173 -137.5710 249° West 433 498 43,000  Level FlightAware Transoceanic
08:17PM 27.1741 -137.6970 249° West 433 498 43,000  Level FlightAware Transoceanic
08:18PM 27.1307 -137.8229 249° West 433 498 43,000  Level FlightAware Transoceanic
08:19PM 27.0873 -137.9487 249° West 433 498 43,000  Level FlightAware Transoceanic
08:20PM 27.0437 -138.0744 249° West 433 498 43,000  Level FlightAware Transoceanic
08:21PM 27.0000 -138.2000 249° West 433 498 43,000  Level FlightAware Transoceanic
08:22PM 26.9551 -138.3283 249° West 433 498 43,000  Level FlightAware Transoceanic
08:22PM 27.0000 -138.2000 249° West 434 499 43,000  Level Oakland Oceanic (ODAPS)
08:23PM 26.9101 -138.4565 248° West 433 498 43,000  Level FlightAware Transoceanic
08:24PM 26.8649 -138.5846 248° West 433 498 43,000  Level FlightAware Transoceanic
08:25PM 26.8197 -138.7126 248° West 433 498 43,000  Level FlightAware Transoceanic
08:26PM 26.7743 -138.8405 248° West 433 498 43,000  Level FlightAware Transoceanic
08:27PM 26.7288 -138.9683 248° West 433 498 43,000  Level FlightAware Transoceanic
08:28PM 26.6832 -139.0960 248° West 433 498 43,000  Level FlightAware Transoceanic
08:29PM 26.5992 -139.3302 248° West 434 499 43,000  Level FlightAware Transoceanic
08:30PM 26.5541 -139.4553 248° West 434 499 43,000  Level FlightAware Transoceanic
08:31PM 26.5089 -139.5803 248° West 434 499 43,000  Level FlightAware Transoceanic
08:32PM 26.4636 -139.7052 248° West 434 499 43,000  Level FlightAware Transoceanic
08:33PM 26.4181 -139.8300 248° West 434 499 43,000  Level FlightAware Transoceanic
08:34PM 26.3726 -139.9547 248° West 434 499 43,000  Level FlightAware Transoceanic
08:35PM 26.3270 -140.0793 248° West 434 499 43,000  Level FlightAware Transoceanic
08:36PM 26.2812 -140.2038 248° West 434 499 43,000  Level FlightAware Transoceanic
08:37PM 26.2354 -140.3282 248° West 434 499 43,000  Level FlightAware Transoceanic
08:38PM 26.1894 -140.4525 248° West 434 499 43,000  Level FlightAware Transoceanic
08:39PM 26.1434 -140.5767 248° West 434 499 43,000  Level FlightAware Transoceanic
08:40PM 26.0972 -140.7008 247° West 434 499 43,000  Level FlightAware Transoceanic
08:41PM 26.0509 -140.8248 247° West 434 499 43,000  Level FlightAware Transoceanic
08:42PM 26.0046 -140.9488 247° West 434 499 43,000  Level FlightAware Transoceanic
08:43PM 25.9581 -141.0726 247° West 434 499 43,000  Level FlightAware Transoceanic
08:44PM 25.9115 -141.1963 247° West 434 499 43,000  Level FlightAware Transoceanic
08:45PM 25.8648 -141.3199 247° West 434 499 43,000  Level FlightAware Transoceanic
08:46PM 25.8180 -141.4434 247° West 434 499 43,000  Level FlightAware Transoceanic
08:47PM 25.7711 -141.5668 247° West 434 499 43,000  Level FlightAware Transoceanic
08:48PM 25.7241 -141.6902 247° West 434 499 43,000  Level FlightAware Transoceanic
08:49PM 25.6770 -141.8134 247° West 434 499 43,000  Level FlightAware Transoceanic
08:50PM 25.6298 -141.9365 247° West 434 499 43,000  Level FlightAware Transoceanic
08:51PM 25.5825 -142.0596 247° West 434 499 43,000  Level FlightAware Transoceanic
08:52PM 25.5350 -142.1825 247° West 434 499 43,000  Level FlightAware Transoceanic
08:53PM 25.4875 -142.3053 247° West 434 499 43,000  Level FlightAware Transoceanic
08:54PM 25.4399 -142.4281 247° West 434 499 43,000  Level FlightAware Transoceanic
08:55PM 25.3922 -142.5507 247° West 434 499 43,000  Level FlightAware Transoceanic
08:56PM 25.3443 -142.6733 247° West 434 499 43,000  Level FlightAware Transoceanic
08:57PM 25.2964 -142.7957 247° West 434 499 43,000  Level FlightAware Transoceanic
08:58PM 25.2484 -142.9181 247° West 434 499 43,000  Level FlightAware Transoceanic
08:59PM 25.2002 -143.0403 246° West 434 499 43,000  Level FlightAware Transoceanic
09:00PM 25.1520 -143.1625 246° West 434 499 43,000  Level FlightAware Transoceanic
09:01PM 25.1037 -143.2845 246° West 434 499 43,000  Level FlightAware Transoceanic
09:02PM 25.0552 -143.4065 246° West 434 499 43,000  Level FlightAware Transoceanic
09:03PM 25.0067 -143.5284 246° West 434 499 43,000  Level FlightAware Transoceanic
09:04PM 24.9581 -143.6502 246° West 434 499 43,000  Level FlightAware Transoceanic
09:05PM 24.9093 -143.7718 246° West 434 499 43,000  Level FlightAware Transoceanic
09:06PM 24.8605 -143.8934 246° West 434 499 43,000  Level FlightAware Transoceanic
09:07PM 24.8116 -144.0149 246° West 434 499 43,000  Level FlightAware Transoceanic
09:08PM 24.7626 -144.1363 246° West 434 499 43,000  Level FlightAware Transoceanic
09:09PM 24.7134 -144.2576 246° West 434 499 43,000  Level FlightAware Transoceanic
09:10PM 24.6642 -144.3788 246° West 434 499 43,000  Level FlightAware Transoceanic
09:11PM 24.6149 -144.4999 246° West 434 499 43,000  Level FlightAware Transoceanic
09:12PM 24.5655 -144.6209 246° West 434 499 43,000  Level FlightAware Transoceanic
09:13PM 24.5160 -144.7418 246° West 434 499 43,000  Level FlightAware Transoceanic
09:14PM 24.4664 -144.8626 246° West 434 499 43,000  Level FlightAware Transoceanic
09:15PM 24.4167 -144.9833 246° West 434 499 43,000  Level FlightAware Transoceanic
09:16PM 24.3679 -145.1016 246° West 434 499 43,000  Level FlightAware Transoceanic
09:17PM 24.3190 -145.2197 246° West 434 499 43,000  Level FlightAware Transoceanic
09:18PM 24.2700 -145.3377 245° Southwest 434 499 43,000  Level FlightAware Transoceanic
09:18PM 24.4167 -144.9833 246° West 433 498 43,000  Level Oakland Oceanic (ODAPS)
09:19PM 24.2209 -145.4557 245° Southwest 434 499 43,000  Level FlightAware Transoceanic
09:20PM 24.1717 -145.5735 245° Southwest 434 499 43,000  Level FlightAware Transoceanic
09:21PM 24.1224 -145.6913 245° Southwest 434 499 43,000  Level FlightAware Transoceanic
09:22PM 24.0731 -145.8090 245° Southwest 434 499 43,000  Level FlightAware Transoceanic
09:23PM 24.0237 -145.9266 245° Southwest 434 499 43,000  Level FlightAware Transoceanic
09:24PM 23.9741 -146.0441 245° Southwest 434 499 43,000  Level FlightAware Transoceanic
09:25PM 23.8648 -146.3022 245° Southwest 433 498 43,000  Level FlightAware Transoceanic
09:26PM 23.8141 -146.4216 245° Southwest 433 498 43,000  Level FlightAware Transoceanic
09:27PM 23.7633 -146.5408 245° Southwest 433 498 43,000  Level FlightAware Transoceanic
09:28PM 23.7124 -146.6600 245° Southwest 433 498 43,000  Level FlightAware Transoceanic
09:29PM 23.6614 -146.7790 245° Southwest 433 498 43,000  Level FlightAware Transoceanic
09:30PM 23.6103 -146.8980 245° Southwest 433 498 43,000  Level FlightAware Transoceanic
09:31PM 23.5591 -147.0168 245° Southwest 433 498 43,000  Level FlightAware Transoceanic
09:32PM 23.5079 -147.1356 245° Southwest 433 498 43,000  Level FlightAware Transoceanic
09:33PM 23.4565 -147.2543 245° Southwest 433 498 43,000  Level FlightAware Transoceanic
09:34PM 23.4050 -147.3729 245° Southwest 433 498 43,000  Level FlightAware Transoceanic
09:35PM 23.3535 -147.4914 245° Southwest 433 498 43,000  Level FlightAware Transoceanic
09:36PM 23.3019 -147.6098 245° Southwest 433 498 43,000  Level FlightAware Transoceanic
09:37PM 23.2502 -147.7281 245° Southwest 433 498 43,000  Level FlightAware Transoceanic
09:38PM 23.1983 -147.8464 244° Southwest 433 498 43,000  Level FlightAware Transoceanic
09:39PM 23.1465 -147.9645 244° Southwest 433 498 43,000  Level FlightAware Transoceanic
09:40PM 23.0945 -148.0826 244° Southwest 433 498 43,000  Level FlightAware Transoceanic
09:41PM 23.0424 -148.2005 244° Southwest 433 498 43,000  Level FlightAware Transoceanic
09:42PM 22.9902 -148.3184 244° Southwest 433 498 43,000  Level FlightAware Transoceanic
09:43PM 22.9380 -148.4361 244° Southwest 433 498 43,000  Level FlightAware Transoceanic
09:44PM 22.8857 -148.5538 244° Southwest 433 498 43,000  Level FlightAware Transoceanic
09:45PM 22.8333 -148.6714 244° Southwest 433 498 43,000  Level FlightAware Transoceanic
09:46PM 22.7807 -148.7889 244° Southwest 433 498 43,000  Level FlightAware Transoceanic
09:47PM 22.7281 -148.9063 244° Southwest 433 498 43,000  Level FlightAware Transoceanic
09:48PM 22.6755 -149.0236 244° Southwest 433 498 43,000  Level FlightAware Transoceanic
09:49PM 22.6227 -149.1408 244° Southwest 433 498 43,000  Level FlightAware Transoceanic
09:50PM 22.5699 -149.2580 244° Southwest 433 498 43,000  Level FlightAware Transoceanic
09:51PM 22.5169 -149.3750 244° Southwest 433 498 43,000  Level FlightAware Transoceanic
09:52PM 22.4639 -149.4920 244° Southwest 433 498 43,000  Level FlightAware Transoceanic
09:53PM 22.4108 -149.6088 244° Southwest 433 498 43,000  Level FlightAware Transoceanic
09:54PM 22.3576 -149.7256 244° Southwest 433 498 43,000  Level FlightAware Transoceanic
09:55PM 22.3044 -149.8423 244° Southwest 433 498 43,000  Level FlightAware Transoceanic
09:56PM 22.2510 -149.9589 244° Southwest 433 498 43,000  Level FlightAware Transoceanic
09:57PM 22.1976 -150.0754 244° Southwest 433 498 43,000  Level FlightAware Transoceanic
09:58PM 22.1441 -150.1918 244° Southwest 433 498 43,000  Level FlightAware Transoceanic
09:59PM 22.0905 -150.3082 244° Southwest 433 498 43,000  Level FlightAware Transoceanic
10:00PM 22.0368 -150.4244 243° Southwest 433 498 43,000  Level FlightAware Transoceanic
10:01PM 21.9830 -150.5406 243° Southwest 433 498 43,000  Level FlightAware Transoceanic
10:02PM 21.9292 -150.6566 243° Southwest 433 498 43,000  Level FlightAware Transoceanic
10:03PM 21.8752 -150.7726 243° Southwest 433 498 43,000  Level FlightAware Transoceanic
10:04PM 21.8213 -150.8885 243° Southwest 433 498 43,000  Level FlightAware Transoceanic
10:05PM 21.7672 -151.0043 243° Southwest 433 498 43,000  Level FlightAware Transoceanic
10:06PM 21.7130 -151.1200 243° Southwest 433 498 43,000  Level FlightAware Transoceanic
10:07PM 21.6587 -151.2357 243° Southwest 433 498 43,000  Level FlightAware Transoceanic
10:08PM 21.6044 -151.3512 243° Southwest 433 498 43,000  Level FlightAware Transoceanic
10:09PM 21.5500 -151.4667 243° Southwest 433 498 43,000  Level FlightAware Transoceanic
10:09PM 21.5667 -151.4000 242° Southwest 430 495 43,000  Level Honolulu Center
10:10PM 21.4969 -151.5767 243° Southwest 433 498 43,000  Level FlightAware Transoceanic
10:10PM 21.5167 -151.5167 245° Southwest 420 483 43,000  Level Honolulu Center
10:11PM 21.4437 -151.6867 243° Southwest 433 498 43,000  Level FlightAware Transoceanic
10:11PM 21.4667 -151.6333 245° Southwest 420 483 43,000  Level Honolulu Center
10:12PM 21.3904 -151.7966 242° Southwest 433 498 43,000  Level FlightAware Transoceanic
10:12PM 21.4333 -151.7500 253° West 420 483 43,000  Level Honolulu Center
10:13PM 21.3371 -151.9064 242° Southwest 433 498 43,000  Level FlightAware Transoceanic
10:13PM 21.3833 -151.8833 248° West 430 495 43,000  Level Honolulu Center
10:14PM 21.2837 -152.0161 242° Southwest 433 498 43,000  Level FlightAware Transoceanic
10:14PM 21.3500 -152.0000 253° West 430 495 43,000  Level Honolulu Center
10:15PM 21.3167 -152.1167 253° West 440 506 43,000  Level Honolulu Center
10:16PM 21.2833 -152.2500 255° West 430 495 43,000  Level Honolulu Center
10:17PM 21.2500 -152.3667 253° West 430 495 43,000  Level Honolulu Center
10:18PM 21.2167 -152.4833 253° West 430 495 43,000  Level Honolulu Center
10:19PM 21.1833 -152.6167 255° West 430 495 43,000  Level Honolulu Center
10:20PM 21.1333 -152.7333 245° Southwest 440 506 43,000  Level Honolulu Center
10:21PM 21.1000 -152.8667 255° West 430 495 43,000  Level Honolulu Center
10:22PM 21.0667 -152.9833 253° West 440 506 43,000  Level Honolulu Center
10:23PM 21.0333 -153.1167 255° West 440 506 43,000  Level Honolulu Center
10:24PM 21.0000 -153.2333 253° West 440 506 43,000  Level Honolulu Center
10:25PM 20.9500 -153.3667 248° West 440 506 43,000  Level Honolulu Center
10:26PM 20.9167 -153.4833 253° West 440 506 43,000  Level Honolulu Center
10:27PM 20.8833 -153.6167 255° West 440 506 43,000 -180 Level Honolulu Center
10:28PM 20.8500 -153.7333 253° West 440 506 42,700 -900 Descending Honolulu Center
10:29PM 20.8167 -153.8500 253° West 420 483 41,300 -1,500 Descending Honolulu Center
10:30PM 20.7667 -153.9667 245° Southwest 420 483 39,700 -2,040 Descending Honolulu Center
10:31PM 20.7333 -154.1000 255° West 430 495 37,300 -2,220 Descending Honolulu Center
10:32PM 20.7000 -154.2167 253° West 440 506 35,300 -2,040 Descending Honolulu Center
10:33PM 20.6667 -154.3500 255° West 440 506 33,300 -2,040 Descending Honolulu Center
10:34PM 20.6167 -154.4833 248° West 440 506 31,300 -1,860 Descending Honolulu Center
10:35PM 20.5833 -154.6167 255° West 440 506 29,600 -1,740 Descending Honolulu Center
10:36PM 20.5333 -154.7500 248° West 470 541 27,900 -1,740 Descending Honolulu Center
10:37PM 20.5000 -154.8833 255° West 460 529 26,100 -1,980 Descending Honolulu Center
10:38PM 20.4500 -155.0000 245° Southwest 440 506 24,000 -2,040 Descending Honolulu Center
10:39PM 20.4167 -155.1167 253° West 430 495 22,000 -2,040 Descending Honolulu Center
10:40PM 20.3833 -155.2333 253° West 430 495 20,000 -1,980 Descending Honolulu Center
10:41PM 20.3500 -155.3667 255° West 420 483 18,100 -2,040 Descending Honolulu Center
10:42PM 20.3000 -155.4833 245° Southwest 410 472 16,000 -1,800 Descending Honolulu Center
10:43PM 20.2667 -155.5833 250° West 350 403 14,500 -1,620 Descending Honolulu Center
10:44PM 20.2500 -155.6667 258° West 320 368 12,800 -1,800 Descending Honolulu Center
10:45PM 20.2167 -155.7500 247° West 300 345 10,900 -1,800 Descending Honolulu Center
10:46PM 20.1833 -155.8333 247° West 300 345 9,200 -1,980 Descending Honolulu Center
10:47PM 20.1333 -155.9000 231° Southwest 300 345 7,000 -2,220 Descending Honolulu Center
10:48PM 20.0667 -155.9500 215° Southwest 290 334 4,800 -2,040 Descending Honolulu Center
10:49PM 20.0000 -156.0000 215° Southwest 270 311 3,000 -900 Descending Honolulu Center
10:50PM 19.9333 -156.0167 193° South 240 276 3,000 -240 Level Honolulu Center
10:51PM 19.8833 -156.0167 180° South 210 242 2,600 -720 Descending Honolulu Center
10:52PM 19.8333 -156.0333 197° South 160 184 1,600 -900 Descending Honolulu Center
10:53PM 19.8000 -156.0333 180° South 110 127 900 -660 Descending Honolulu Center
10:54PM 19.7500 -156.0333 180° South 130 150 300 -600 Descending Honolulu Center